<?xml version="1.0" encoding="UTF-8" standalone="no" ?>
<gpx xmlns="http://www.topografix.com/GPX/1/1" xmlns:xsi="http://www.w3.org/2001/XMLSchema-instance" xsi:schemaLocation="http://www.topografix.com/GPX/1/1 http://www.topografix.com/GPX/1/1/gpx.xsd" version="1.1" creator="VisuGPX - https://www.visugpx.com">
  <metadata>
    <name>Cyclo vendin boulot</name>
  </metadata>
  <trk>
    <name><![CDATA[Cyclo vendin boulot_1]]></name>
    <trkseg>
      <trkpt lat="50.45764" lon="2.84565">
        <ele>34.3</ele>
        <time>2019-08-30T16:48:35.000Z</time>
      </trkpt>
      <trkpt lat="50.45954" lon="2.84358">
        <ele>41.1</ele>
        <time>2019-08-30T16:49:09.409Z</time>
      </trkpt>
      <trkpt lat="50.46023" lon="2.84966">
        <ele>33.9</ele>
        <time>2019-08-30T16:50:07.916Z</time>
      </trkpt>
      <trkpt lat="50.46173" lon="2.85292">
        <ele>34.6</ele>
        <time>2019-08-30T16:50:46.021Z</time>
      </trkpt>
      <trkpt lat="50.46387" lon="2.85775">
        <ele>32.8</ele>
        <time>2019-08-30T16:51:41.767Z</time>
      </trkpt>
      <trkpt lat="50.46618" lon="2.86081">
        <ele>35.6</ele>
        <time>2019-08-30T16:52:26.732Z</time>
      </trkpt>
      <trkpt lat="50.46902" lon="2.86318">
        <ele>34.9</ele>
        <time>2019-08-30T16:53:14.586Z</time>
      </trkpt>
      <trkpt lat="50.47124" lon="2.86499">
        <ele>31.6</ele>
        <time>2019-08-30T16:53:51.805Z</time>
      </trkpt>
      <trkpt lat="50.47284" lon="2.86318">
        <ele>33.5</ele>
        <time>2019-08-30T16:54:21.144Z</time>
      </trkpt>
      <trkpt lat="50.47381" lon="2.86262">
        <ele>31.1</ele>
        <time>2019-08-30T16:54:36.522Z</time>
      </trkpt>
      <trkpt lat="50.47452" lon="2.86206">
        <ele>28.3</ele>
        <time>2019-08-30T16:54:48.344Z</time>
      </trkpt>
      <trkpt lat="50.47639" lon="2.85913">
        <ele>26.2</ele>
        <time>2019-08-30T16:55:27.642Z</time>
      </trkpt>
      <trkpt lat="50.48011" lon="2.86764">
        <ele>23.8</ele>
        <time>2019-08-30T16:57:05.412Z</time>
      </trkpt>
      <trkpt lat="50.48322" lon="2.87154">
        <ele>22.1</ele>
        <time>2019-08-30T16:58:04.621Z</time>
      </trkpt>
      <trkpt lat="50.48517" lon="2.87503">
        <ele>23.9</ele>
        <time>2019-08-30T16:58:48.599Z</time>
      </trkpt>
      <trkpt lat="50.48798" lon="2.87992">
        <ele>22.8</ele>
        <time>2019-08-30T16:59:50.987Z</time>
      </trkpt>
      <trkpt lat="50.49184" lon="2.8796">
        <ele>23</ele>
        <time>2019-08-30T17:00:48.508Z</time>
      </trkpt>
      <trkpt lat="50.49532" lon="2.87941">
        <ele>23.4</ele>
        <time>2019-08-30T17:01:40.325Z</time>
      </trkpt>
      <trkpt lat="50.49692" lon="2.87928">
        <ele>22.1</ele>
        <time>2019-08-30T17:02:04.167Z</time>
      </trkpt>
      <trkpt lat="50.49719" lon="2.87946">
        <ele>21.9</ele>
        <time>2019-08-30T17:02:08.531Z</time>
      </trkpt>
      <trkpt lat="50.49746" lon="2.87953">
        <ele>21.7</ele>
        <time>2019-08-30T17:02:12.603Z</time>
      </trkpt>
      <trkpt lat="50.49774" lon="2.87953">
        <ele>22.7</ele>
        <time>2019-08-30T17:02:16.770Z</time>
      </trkpt>
      <trkpt lat="50.49828" lon="2.87953">
        <ele>23.8</ele>
        <time>2019-08-30T17:02:24.806Z</time>
      </trkpt>
      <trkpt lat="50.4985" lon="2.87942">
        <ele>25</ele>
        <time>2019-08-30T17:02:28.241Z</time>
      </trkpt>
      <trkpt lat="50.49987" lon="2.87963">
        <ele>23.8</ele>
        <time>2019-08-30T17:02:48.725Z</time>
      </trkpt>
      <trkpt lat="50.5002" lon="2.87991">
        <ele>23.8</ele>
        <time>2019-08-30T17:02:54.305Z</time>
      </trkpt>
      <trkpt lat="50.50318" lon="2.88054">
        <ele>25.7</ele>
        <time>2019-08-30T17:03:39.050Z</time>
      </trkpt>
      <trkpt lat="50.51215" lon="2.88214">
        <ele>21.5</ele>
        <time>2019-08-30T17:05:53.390Z</time>
      </trkpt>
      <trkpt lat="50.5143" lon="2.88256">
        <ele>22</ele>
        <time>2019-08-30T17:06:25.630Z</time>
      </trkpt>
      <trkpt lat="50.51736" lon="2.88416">
        <ele>24.7</ele>
        <time>2019-08-30T17:07:13.617Z</time>
      </trkpt>
      <trkpt lat="50.51896" lon="2.88486">
        <ele>19.9</ele>
        <time>2019-08-30T17:07:38.331Z</time>
      </trkpt>
      <trkpt lat="50.52024" lon="2.88531">
        <ele>22.4</ele>
        <time>2019-08-30T17:07:57.849Z</time>
      </trkpt>
      <trkpt lat="50.52193" lon="2.88515">
        <ele>21</ele>
        <time>2019-08-30T17:08:23.044Z</time>
      </trkpt>
      <trkpt lat="50.52235" lon="2.88497">
        <ele>19.7</ele>
        <time>2019-08-30T17:08:29.522Z</time>
      </trkpt>
      <trkpt lat="50.52322" lon="2.88436">
        <ele>21.5</ele>
        <time>2019-08-30T17:08:43.697Z</time>
      </trkpt>
      <trkpt lat="50.52392" lon="2.88354">
        <ele>21.2</ele>
        <time>2019-08-30T17:08:56.685Z</time>
      </trkpt>
      <trkpt lat="50.52427" lon="2.88311">
        <ele>21.2</ele>
        <time>2019-08-30T17:09:03.294Z</time>
      </trkpt>
      <trkpt lat="50.5246" lon="2.88251">
        <ele>22.4</ele>
        <time>2019-08-30T17:09:10.800Z</time>
      </trkpt>
      <trkpt lat="50.52491" lon="2.88187">
        <ele>24.8</ele>
        <time>2019-08-30T17:09:18.412Z</time>
      </trkpt>
      <trkpt lat="50.52511" lon="2.88132">
        <ele>25.8</ele>
        <time>2019-08-30T17:09:24.406Z</time>
      </trkpt>
      <trkpt lat="50.52535" lon="2.88064">
        <ele>24.4</ele>
        <time>2019-08-30T17:09:31.764Z</time>
      </trkpt>
      <trkpt lat="50.52553" lon="2.88">
        <ele>24.1</ele>
        <time>2019-08-30T17:09:38.385Z</time>
      </trkpt>
      <trkpt lat="50.52577" lon="2.87917">
        <ele>23.1</ele>
        <time>2019-08-30T17:09:47.011Z</time>
      </trkpt>
      <trkpt lat="50.52601" lon="2.87809">
        <ele>22.8</ele>
        <time>2019-08-30T17:09:57.834Z</time>
      </trkpt>
      <trkpt lat="50.52537" lon="2.87771">
        <ele>23</ele>
        <time>2019-08-30T17:10:08.014Z</time>
      </trkpt>
      <trkpt lat="50.52502" lon="2.87744">
        <ele>23</ele>
        <time>2019-08-30T17:10:13.815Z</time>
      </trkpt>
      <trkpt lat="50.52558" lon="2.8777">
        <ele>23</ele>
        <time>2019-08-30T17:10:22.504Z</time>
      </trkpt>
      <trkpt lat="50.52768" lon="2.87899">
        <ele>22.5</ele>
        <time>2019-08-30T17:10:56.053Z</time>
      </trkpt>
      <trkpt lat="50.52753" lon="2.87906">
        <ele>22.2</ele>
        <time>2019-08-30T17:10:58.381Z</time>
      </trkpt>
      <trkpt lat="50.52691" lon="2.87869">
        <ele>22.3</ele>
        <time>2019-08-30T17:11:08.249Z</time>
      </trkpt>
      <trkpt lat="50.52667" lon="2.87861">
        <ele>22.2</ele>
        <time>2019-08-30T17:11:11.900Z</time>
      </trkpt>
      <trkpt lat="50.5266" lon="2.87862">
        <ele>22.5</ele>
        <time>2019-08-30T17:11:12.946Z</time>
      </trkpt>
      <trkpt lat="50.52655" lon="2.87865">
        <ele>22.6</ele>
        <time>2019-08-30T17:11:13.742Z</time>
      </trkpt>
      <trkpt lat="50.52644" lon="2.87889">
        <ele>22.8</ele>
        <time>2019-08-30T17:11:16.541Z</time>
      </trkpt>
      <trkpt lat="50.52598" lon="2.88111">
        <ele>27.6</ele>
        <time>2019-08-30T17:11:38.630Z</time>
      </trkpt>
      <trkpt lat="50.52582" lon="2.88196">
        <ele>27.1</ele>
        <time>2019-08-30T17:11:47.016Z</time>
      </trkpt>
      <trkpt lat="50.52567" lon="2.88337">
        <ele>25.6</ele>
        <time>2019-08-30T17:12:00.541Z</time>
      </trkpt>
      <trkpt lat="50.52571" lon="2.88461">
        <ele>24.1</ele>
        <time>2019-08-30T17:12:12.287Z</time>
      </trkpt>
      <trkpt lat="50.52586" lon="2.88594">
        <ele>25.2</ele>
        <time>2019-08-30T17:12:25.066Z</time>
      </trkpt>
      <trkpt lat="50.52599" lon="2.88663">
        <ele>24.9</ele>
        <time>2019-08-30T17:12:31.874Z</time>
      </trkpt>
      <trkpt lat="50.52621" lon="2.88744">
        <ele>24.9</ele>
        <time>2019-08-30T17:12:40.207Z</time>
      </trkpt>
      <trkpt lat="50.52715" lon="2.88955">
        <ele>21.8</ele>
        <time>2019-08-30T17:13:04.581Z</time>
      </trkpt>
      <trkpt lat="50.52857" lon="2.89112">
        <ele>22.6</ele>
        <time>2019-08-30T17:13:30.410Z</time>
      </trkpt>
      <trkpt lat="50.53128" lon="2.89445">
        <ele>23.3</ele>
        <time>2019-08-30T17:14:21.582Z</time>
      </trkpt>
      <trkpt lat="50.53471" lon="2.89885">
        <ele>22.2</ele>
        <time>2019-08-30T17:15:27.441Z</time>
      </trkpt>
      <trkpt lat="50.53742" lon="2.90211">
        <ele>27.9</ele>
        <time>2019-08-30T17:16:18.206Z</time>
      </trkpt>
      <trkpt lat="50.54152" lon="2.90618">
        <ele>22.4</ele>
        <time>2019-08-30T17:17:30.346Z</time>
      </trkpt>
      <trkpt lat="50.54545" lon="2.91007">
        <ele>21.2</ele>
        <time>2019-08-30T17:18:39.437Z</time>
      </trkpt>
      <trkpt lat="50.54688" lon="2.91147">
        <ele>22.6</ele>
        <time>2019-08-30T17:19:04.499Z</time>
      </trkpt>
      <trkpt lat="50.54806" lon="2.91175">
        <ele>22.5</ele>
        <time>2019-08-30T17:19:22.257Z</time>
      </trkpt>
      <trkpt lat="50.54973" lon="2.91205">
        <ele>21.7</ele>
        <time>2019-08-30T17:19:47.270Z</time>
      </trkpt>
      <trkpt lat="50.55012" lon="2.91228">
        <ele>21.2</ele>
        <time>2019-08-30T17:19:53.468Z</time>
      </trkpt>
      <trkpt lat="50.55026" lon="2.91276">
        <ele>21.6</ele>
        <time>2019-08-30T17:19:58.462Z</time>
      </trkpt>
      <trkpt lat="50.55034" lon="2.91313">
        <ele>21.7</ele>
        <time>2019-08-30T17:20:02.158Z</time>
      </trkpt>
      <trkpt lat="50.55071" lon="2.91598">
        <ele>23.1</ele>
        <time>2019-08-30T17:20:29.663Z</time>
      </trkpt>
      <trkpt lat="50.55091" lon="2.9169">
        <ele>22.7</ele>
        <time>2019-08-30T17:20:38.857Z</time>
      </trkpt>
      <trkpt lat="50.55106" lon="2.91826">
        <ele>22.7</ele>
        <time>2019-08-30T17:20:51.909Z</time>
      </trkpt>
      <trkpt lat="50.55131" lon="2.91862">
        <ele>22.3</ele>
        <time>2019-08-30T17:20:56.952Z</time>
      </trkpt>
      <trkpt lat="50.55218" lon="2.91977">
        <ele>20.9</ele>
        <time>2019-08-30T17:21:13.859Z</time>
      </trkpt>
      <trkpt lat="50.55334" lon="2.9209">
        <ele>20.1</ele>
        <time>2019-08-30T17:21:34.160Z</time>
      </trkpt>
      <trkpt lat="50.55394" lon="2.92145">
        <ele>20.6</ele>
        <time>2019-08-30T17:21:44.493Z</time>
      </trkpt>
      <trkpt lat="50.55368" lon="2.92239">
        <ele>20.6</ele>
        <time>2019-08-30T17:21:54.186Z</time>
      </trkpt>
      <trkpt lat="50.5528" lon="2.92465">
        <ele>20.6</ele>
        <time>2019-08-30T17:22:19.248Z</time>
      </trkpt>
      <trkpt lat="50.55211" lon="2.9272">
        <ele>20.8</ele>
        <time>2019-08-30T17:22:45.454Z</time>
      </trkpt>
      <trkpt lat="50.55144" lon="2.92998">
        <ele>21.1</ele>
        <time>2019-08-30T17:23:13.567Z</time>
      </trkpt>
      <trkpt lat="50.55121" lon="2.93189">
        <ele>21</ele>
        <time>2019-08-30T17:23:31.948Z</time>
      </trkpt>
      <trkpt lat="50.55116" lon="2.93267">
        <ele>21</ele>
        <time>2019-08-30T17:23:39.361Z</time>
      </trkpt>
      <trkpt lat="50.55115" lon="2.93313">
        <ele>20.9</ele>
        <time>2019-08-30T17:23:43.713Z</time>
      </trkpt>
      <trkpt lat="50.55119" lon="2.93387">
        <ele>20.7</ele>
        <time>2019-08-30T17:23:50.735Z</time>
      </trkpt>
      <trkpt lat="50.55128" lon="2.93415">
        <ele>20.7</ele>
        <time>2019-08-30T17:23:53.702Z</time>
      </trkpt>
      <trkpt lat="50.55324" lon="2.9398">
        <ele>18.7</ele>
        <time>2019-08-30T17:24:54.567Z</time>
      </trkpt>
      <trkpt lat="50.55351" lon="2.94052">
        <ele>19.5</ele>
        <time>2019-08-30T17:25:02.472Z</time>
      </trkpt>
      <trkpt lat="50.5542" lon="2.94148">
        <ele>20</ele>
        <time>2019-08-30T17:25:16.177Z</time>
      </trkpt>
      <trkpt lat="50.55552" lon="2.94406">
        <ele>18.8</ele>
        <time>2019-08-30T17:25:47.496Z</time>
      </trkpt>
      <trkpt lat="50.55557" lon="2.94468">
        <ele>19.2</ele>
        <time>2019-08-30T17:25:53.405Z</time>
      </trkpt>
      <trkpt lat="50.5561" lon="2.94622">
        <ele>21.1</ele>
        <time>2019-08-30T17:26:09.964Z</time>
      </trkpt>
      <trkpt lat="50.55655" lon="2.94742">
        <ele>20.7</ele>
        <time>2019-08-30T17:26:23.138Z</time>
      </trkpt>
      <trkpt lat="50.5582" lon="2.95094">
        <ele>22.6</ele>
        <time>2019-08-30T17:27:04.494Z</time>
      </trkpt>
      <trkpt lat="50.55888" lon="2.95206">
        <ele>22</ele>
        <time>2019-08-30T17:27:19.140Z</time>
      </trkpt>
      <trkpt lat="50.55981" lon="2.95321">
        <ele>22.5</ele>
        <time>2019-08-30T17:27:36.739Z</time>
      </trkpt>
      <trkpt lat="50.56066" lon="2.95409">
        <ele>20.7</ele>
        <time>2019-08-30T17:27:51.878Z</time>
      </trkpt>
      <trkpt lat="50.56165" lon="2.95468">
        <ele>20.7</ele>
        <time>2019-08-30T17:28:07.631Z</time>
      </trkpt>
      <trkpt lat="50.56173" lon="2.95473">
        <ele>20.3</ele>
        <time>2019-08-30T17:28:08.912Z</time>
      </trkpt>
      <trkpt lat="50.56184" lon="2.95505">
        <ele>20.5</ele>
        <time>2019-08-30T17:28:12.352Z</time>
      </trkpt>
      <trkpt lat="50.5627" lon="2.95606">
        <ele>18.9</ele>
        <time>2019-08-30T17:28:28.319Z</time>
      </trkpt>
      <trkpt lat="50.56381" lon="2.95703">
        <ele>19.5</ele>
        <time>2019-08-30T17:28:47.211Z</time>
      </trkpt>
      <trkpt lat="50.56405" lon="2.95717">
        <ele>19.3</ele>
        <time>2019-08-30T17:28:51.020Z</time>
      </trkpt>
      <trkpt lat="50.56462" lon="2.95823">
        <ele>17.8</ele>
        <time>2019-08-30T17:29:04.148Z</time>
      </trkpt>
      <trkpt lat="50.5678" lon="2.96356">
        <ele>19.2</ele>
        <time>2019-08-30T17:30:13.268Z</time>
      </trkpt>
      <trkpt lat="50.56926" lon="2.96572">
        <ele>19.9</ele>
        <time>2019-08-30T17:30:43.082Z</time>
      </trkpt>
      <trkpt lat="50.57027" lon="2.96722">
        <ele>20.2</ele>
        <time>2019-08-30T17:31:03.743Z</time>
      </trkpt>
      <trkpt lat="50.57059" lon="2.96752">
        <ele>19.9</ele>
        <time>2019-08-30T17:31:09.285Z</time>
      </trkpt>
      <trkpt lat="50.57081" lon="2.96759">
        <ele>19.9</ele>
        <time>2019-08-30T17:31:12.625Z</time>
      </trkpt>
      <trkpt lat="50.57107" lon="2.96782">
        <ele>21.6</ele>
        <time>2019-08-30T17:31:17.063Z</time>
      </trkpt>
      <trkpt lat="50.57255" lon="2.97074">
        <ele>21.8</ele>
        <time>2019-08-30T17:31:52.371Z</time>
      </trkpt>
      <trkpt lat="50.57419" lon="2.97308">
        <ele>22.1</ele>
        <time>2019-08-30T17:32:25.305Z</time>
      </trkpt>
      <trkpt lat="50.5768" lon="2.97616">
        <ele>21.3</ele>
        <time>2019-08-30T17:33:13.841Z</time>
      </trkpt>
      <trkpt lat="50.57778" lon="2.97674">
        <ele>18.8</ele>
        <time>2019-08-30T17:33:29.420Z</time>
      </trkpt>
      <trkpt lat="50.57889" lon="2.97745">
        <ele>18.6</ele>
        <time>2019-08-30T17:33:47.249Z</time>
      </trkpt>
      <trkpt lat="50.57938" lon="2.97764">
        <ele>18.5</ele>
        <time>2019-08-30T17:33:54.759Z</time>
      </trkpt>
      <trkpt lat="50.57966" lon="2.97727">
        <ele>18.7</ele>
        <time>2019-08-30T17:34:00.198Z</time>
      </trkpt>
      <trkpt lat="50.57994" lon="2.97695">
        <ele>18.8</ele>
        <time>2019-08-30T17:34:05.346Z</time>
      </trkpt>
      <trkpt lat="50.58197" lon="2.97391">
        <ele>18.6</ele>
        <time>2019-08-30T17:34:47.032Z</time>
      </trkpt>
      <trkpt lat="50.58306" lon="2.97274">
        <ele>18.2</ele>
        <time>2019-08-30T17:35:06.662Z</time>
      </trkpt>
      <trkpt lat="50.58393" lon="2.97193">
        <ele>19</ele>
        <time>2019-08-30T17:35:21.702Z</time>
      </trkpt>
      <trkpt lat="50.5842" lon="2.9715">
        <ele>19.6</ele>
        <time>2019-08-30T17:35:27.416Z</time>
      </trkpt>
      <trkpt lat="50.58486" lon="2.96977">
        <ele>20.8</ele>
        <time>2019-08-30T17:35:46.486Z</time>
      </trkpt>
      <trkpt lat="50.58553" lon="2.96922">
        <ele>20</ele>
        <time>2019-08-30T17:35:57.729Z</time>
      </trkpt>
      <trkpt lat="50.58587" lon="2.96759">
        <ele>19.9</ele>
        <time>2019-08-30T17:36:13.940Z</time>
      </trkpt>
      <trkpt lat="50.5874" lon="2.9666">
        <ele>19</ele>
        <time>2019-08-30T17:36:38.555Z</time>
      </trkpt>
      <trkpt lat="50.5892" lon="2.96471">
        <ele>20.5</ele>
        <time>2019-08-30T17:37:10.747Z</time>
      </trkpt>
      <trkpt lat="50.59013" lon="2.96365">
        <ele>22.5</ele>
        <time>2019-08-30T17:37:27.830Z</time>
      </trkpt>
      <trkpt lat="50.5915" lon="2.96163">
        <ele>21</ele>
        <time>2019-08-30T17:37:55.755Z</time>
      </trkpt>
      <trkpt lat="50.59245" lon="2.96057">
        <ele>20</ele>
        <time>2019-08-30T17:38:13.079Z</time>
      </trkpt>
      <trkpt lat="50.59339" lon="2.95979">
        <ele>20.9</ele>
        <time>2019-08-30T17:38:28.889Z</time>
      </trkpt>
      <trkpt lat="50.59406" lon="2.95894">
        <ele>20.3</ele>
        <time>2019-08-30T17:38:41.691Z</time>
      </trkpt>
      <trkpt lat="50.59466" lon="2.95841">
        <ele>20.6</ele>
        <time>2019-08-30T17:38:51.928Z</time>
      </trkpt>
      <trkpt lat="50.59523" lon="2.95788">
        <ele>21.7</ele>
        <time>2019-08-30T17:39:01.778Z</time>
      </trkpt>
      <trkpt lat="50.59618" lon="2.95678">
        <ele>22.4</ele>
        <time>2019-08-30T17:39:19.323Z</time>
      </trkpt>
      <trkpt lat="50.5972" lon="2.95576">
        <ele>22.6</ele>
        <time>2019-08-30T17:39:37.302Z</time>
      </trkpt>
      <trkpt lat="50.59781" lon="2.95526">
        <ele>23</ele>
        <time>2019-08-30T17:39:47.535Z</time>
      </trkpt>
      <trkpt lat="50.59815" lon="2.95583">
        <ele>23</ele>
        <time>2019-08-30T17:39:54.923Z</time>
      </trkpt>
      <trkpt lat="50.59856" lon="2.9577">
        <ele>23</ele>
        <time>2019-08-30T17:40:13.611Z</time>
      </trkpt>
      <trkpt lat="50.59873" lon="2.95862">
        <ele>23.5</ele>
        <time>2019-08-30T17:40:22.662Z</time>
      </trkpt>
      <trkpt lat="50.59892" lon="2.9599">
        <ele>22.7</ele>
        <time>2019-08-30T17:40:35.079Z</time>
      </trkpt>
      <trkpt lat="50.59929" lon="2.96126">
        <ele>22.2</ele>
        <time>2019-08-30T17:40:49.055Z</time>
      </trkpt>
      <trkpt lat="50.59959" lon="2.962">
        <ele>22.5</ele>
        <time>2019-08-30T17:40:57.349Z</time>
      </trkpt>
      <trkpt lat="50.6" lon="2.96287">
        <ele>22.7</ele>
        <time>2019-08-30T17:41:07.584Z</time>
      </trkpt>
      <trkpt lat="50.60018" lon="2.96331">
        <ele>22.4</ele>
        <time>2019-08-30T17:41:12.528Z</time>
      </trkpt>
      <trkpt lat="50.60037" lon="2.96345">
        <ele>22.3</ele>
        <time>2019-08-30T17:41:15.649Z</time>
      </trkpt>
      <trkpt lat="50.6005" lon="2.9631">
        <ele>22.7</ele>
        <time>2019-08-30T17:41:19.479Z</time>
      </trkpt>
      <trkpt lat="50.60066" lon="2.96305">
        <ele>22.8</ele>
        <time>2019-08-30T17:41:21.906Z</time>
      </trkpt>
      <trkpt lat="50.60197" lon="2.96264">
        <ele>19.3</ele>
        <time>2019-08-30T17:41:41.781Z</time>
      </trkpt>
      <trkpt lat="50.60238" lon="2.96299">
        <ele>18.8</ele>
        <time>2019-08-30T17:41:48.720Z</time>
      </trkpt>
      <trkpt lat="50.60248" lon="2.9634">
        <ele>18.2</ele>
        <time>2019-08-30T17:41:52.869Z</time>
      </trkpt>
      <trkpt lat="50.60258" lon="2.96347">
        <ele>18.4</ele>
        <time>2019-08-30T17:41:54.497Z</time>
      </trkpt>
      <trkpt lat="50.60279" lon="2.96342">
        <ele>18.6</ele>
        <time>2019-08-30T17:41:57.658Z</time>
      </trkpt>
      <trkpt lat="50.60279" lon="2.96273">
        <ele>19</ele>
        <time>2019-08-30T17:42:04.175Z</time>
      </trkpt>
      <trkpt lat="50.60264" lon="2.96253">
        <ele>19</ele>
        <time>2019-08-30T17:42:07.099Z</time>
      </trkpt>
      <trkpt lat="50.60235" lon="2.96264">
        <ele>19</ele>
        <time>2019-08-30T17:42:11.538Z</time>
      </trkpt>
      <trkpt lat="50.60223" lon="2.96266">
        <ele>19</ele>
        <time>2019-08-30T17:42:13.334Z</time>
      </trkpt>
      <trkpt lat="50.60032" lon="2.96273">
        <ele>22.8</ele>
        <time>2019-08-30T17:42:41.765Z</time>
      </trkpt>
      <trkpt lat="50.60006" lon="2.96278">
        <ele>22.8</ele>
        <time>2019-08-30T17:42:45.663Z</time>
      </trkpt>
      <trkpt lat="50.59923" lon="2.96082">
        <ele>22</ele>
        <time>2019-08-30T17:43:07.918Z</time>
      </trkpt>
      <trkpt lat="50.59875" lon="2.95843">
        <ele>23.5</ele>
        <time>2019-08-30T17:43:31.596Z</time>
      </trkpt>
      <trkpt lat="50.5985" lon="2.95705">
        <ele>22.5</ele>
        <time>2019-08-30T17:43:45.152Z</time>
      </trkpt>
      <trkpt lat="50.5981" lon="2.95526">
        <ele>23</ele>
        <time>2019-08-30T17:44:03.077Z</time>
      </trkpt>
      <trkpt lat="50.6" lon="2.95475">
        <ele>20.6</ele>
        <time>2019-08-30T17:44:31.759Z</time>
      </trkpt>
      <trkpt lat="50.60289" lon="2.95349">
        <ele>21.1</ele>
        <time>2019-08-30T17:45:16.382Z</time>
      </trkpt>
      <trkpt lat="50.60663" lon="2.95188">
        <ele>24.5</ele>
        <time>2019-08-30T17:46:14.077Z</time>
      </trkpt>
      <trkpt lat="50.60689" lon="2.95234">
        <ele>25</ele>
        <time>2019-08-30T17:46:19.894Z</time>
      </trkpt>
      <trkpt lat="50.60726" lon="2.95337">
        <ele>25.3</ele>
        <time>2019-08-30T17:46:31.072Z</time>
      </trkpt>
      <trkpt lat="50.6078" lon="2.95528">
        <ele>25</ele>
        <time>2019-08-30T17:46:50.819Z</time>
      </trkpt>
      <trkpt lat="50.60771" lon="2.95556">
        <ele>25</ele>
        <time>2019-08-30T17:46:53.783Z</time>
      </trkpt>
      <trkpt lat="50.6072" lon="2.95611">
        <ele>24.2</ele>
        <time>2019-08-30T17:47:02.980Z</time>
      </trkpt>
      <trkpt lat="50.60479" lon="2.95779">
        <ele>19.8</ele>
        <time>2019-08-30T17:47:42.196Z</time>
      </trkpt>
      <trkpt lat="50.60453" lon="2.9577">
        <ele>19.5</ele>
        <time>2019-08-30T17:47:46.157Z</time>
      </trkpt>
      <trkpt lat="50.60437" lon="2.95685">
        <ele>19.9</ele>
        <time>2019-08-30T17:47:54.531Z</time>
      </trkpt>
      <trkpt lat="50.60434" lon="2.95666">
        <ele>20</ele>
        <time>2019-08-30T17:47:56.380Z</time>
      </trkpt>
      <trkpt lat="50.60422" lon="2.95668">
        <ele>19.3</ele>
        <time>2019-08-30T17:47:58.176Z</time>
      </trkpt>
      <trkpt lat="50.60347" lon="2.95705">
        <ele>19</ele>
        <time>2019-08-30T17:48:09.871Z</time>
      </trkpt>
    </trkseg>
  </trk>
</gpx>